Time;durP1;ratioP1;P1;durP2;ratioP2;P2;SDS_P1;SDS_P2;PMS_P1;PMS_P2;Temp;Humidity;BMP_temperature;BMP_pressure;BME280_temperature;BME280_humidity;BME280_pressure;Samples;Min_cycle;Max_cycle;Signal;HPM_P1;HPM_P2
2023/04/22 00:01:39;;;;;;;;;;;;;;;20.14;40.98;100593.07;103746;1287;74055;-84
2023/04/22 00:04:06;;;;;;;;;;;;;;;20.14;41.13;100597.15;103883;1288;62178;-82
2023/04/22 00:06:31;;;;;;;;;;;;;;;20.13;40.97;100598.64;104237;1283;62165;-82
2023/04/22 00:08:57;;;;;;;;;;;;;;;20.13;40.99;100600.60;104220;1286;62094;-82
2023/04/22 00:11:22;;;;;;;;;;;;;;;20.13;41.11;100602.56;104224;1283;62182;-82
2023/04/22 00:13:48;;;;;;;;;;;;;;;20.13;41.01;100602.02;104252;1282;62622;-82
2023/04/22 00:16:13;;;;;;;;;;;;;;;20.13;41.04;100602.55;104084;1288;62197;-82
2023/04/22 00:18:38;;;;;;;;;;;;;;;20.13;41.12;100599.56;104116;1288;62276;-82
2023/04/22 00:21:05;;;;;;;;;;;;;;;20.14;41.11;100599.50;103932;1282;62148;-82
2023/04/22 00:23:30;;;;;;;;;;;;;;;20.13;41.07;100593.96;104175;1283;63359;-82
2023/04/22 00:25:58;;;;;;;;;;;;;;;20.13;40.95;100589.52;104273;1283;62191;-82
2023/04/22 00:28:23;;;;;;;;;;;;;;;20.14;41.13;100584.13;104137;1287;75390;-82
2023/04/22 00:30:49;;;;;;;;;;;;;;;20.14;41.12;100584.31;104121;1283;62207;-82
2023/04/22 00:33:14;;;;;;;;;;;;;;;20.14;40.94;100587.70;104164;1283;62621;-82
2023/04/22 00:35:40;;;;;;;;;;;;;;;20.13;40.97;100588.80;104027;1283;62148;-82
2023/04/22 00:38:05;;;;;;;;;;;;;;;20.13;41.01;100590.04;103780;1288;62187;-83
2023/04/22 00:40:31;;;;;;;;;;;;;;;20.13;41.09;100591.64;103733;1288;76388;-82
2023/04/22 00:42:57;;;;;;;;;;;;;;;20.13;41.04;100587.90;103753;1282;62586;-83
2023/04/22 00:45:23;;;;;;;;;;;;;;;20.13;41.08;100590.40;103750;1286;62191;-83
2023/04/22 00:47:48;;;;;;;;;;;;;;;20.13;41.19;100583.64;103624;1291;63056;-83
2023/04/22 00:50:14;;;;;;;;;;;;;;;20.13;40.99;100580.46;103765;1283;63277;-83
2023/04/22 00:52:40;;;;;;;;;;;;;;;20.12;41.00;100586.92;103647;1283;63304;-83
2023/04/22 00:55:06;;;;;;;;;;;;;;;20.12;40.96;100588.73;103773;1288;62194;-83
2023/04/22 00:57:32;;;;;;;;;;;;;;;20.12;40.99;100588.57;103693;1283;62179;-83
2023/04/22 00:59:58;;;;;;;;;;;;;;;20.11;41.03;100591.27;103771;1283;62431;-83
2023/04/22 01:02:23;;;;;;;;;;;;;;;20.10;40.90;100594.86;103727;1283;62222;-83
2023/04/22 01:04:49;;;;;;;;;;;;;;;20.10;41.00;100596.85;103773;1283;62203;-83
2023/04/22 01:07:15;;;;;;;;;;;;;;;20.10;40.84;100595.80;103786;1283;62174;-83
2023/04/22 01:09:40;;;;;;;;;;;;;;;20.10;40.96;100596.15;103781;1288;62283;-82
2023/04/22 01:12:06;;;;;;;;;;;;;;;20.10;41.12;100599.05;103764;1283;72415;-84
2023/04/22 01:14:31;;;;;;;;;;;;;;;20.09;40.98;100596.95;103807;1285;62815;-83
2023/04/22 01:16:57;;;;;;;;;;;;;;;20.09;40.89;100600.34;103788;1283;62226;-83
2023/04/22 01:19:22;;;;;;;;;;;;;;;20.08;40.91;100600.04;103721;1283;62247;-83
2023/04/22 01:21:49;;;;;;;;;;;;;;;20.09;40.95;100604.14;103813;1288;62191;-83
2023/04/22 01:24:15;;;;;;;;;;;;;;;20.08;41.01;100599.88;103785;1288;73524;-82
2023/04/22 01:26:40;;;;;;;;;;;;;;;20.08;40.95;100598.09;103774;1288;62269;-83
2023/04/22 01:29:06;;;;;;;;;;;;;;;20.08;41.06;100601.87;103824;1283;62194;-83
2023/04/22 01:31:32;;;;;;;;;;;;;;;20.07;40.94;100603.84;103769;1283;62265;-84
2023/04/22 01:33:58;;;;;;;;;;;;;;;20.07;40.93;100603.86;103731;1288;62197;-83
2023/04/22 01:36:23;;;;;;;;;;;;;;;20.07;40.99;100599.96;103688;1283;62273;-83
2023/04/22 01:38:49;;;;;;;;;;;;;;;20.07;41.06;100601.73;103750;1283;76333;-83
2023/04/22 01:41:14;;;;;;;;;;;;;;;20.06;41.09;100598.73;103771;1283;62267;-83
2023/04/22 01:43:40;;;;;;;;;;;;;;;20.07;40.98;100599.08;103615;1283;62222;-82
2023/04/22 01:46:06;;;;;;;;;;;;;;;20.07;40.95;100601.20;103719;1288;62210;-83
2023/04/22 01:48:31;;;;;;;;;;;;;;;20.06;40.94;100604.29;103752;1283;62875;-82
2023/04/22 01:50:57;;;;;;;;;;;;;;;20.06;40.97;100601.24;103636;1289;63330;-83
2023/04/22 01:53:23;;;;;;;;;;;;;;;20.06;40.87;100602.70;103766;1283;62193;-83
2023/04/22 01:55:49;;;;;;;;;;;;;;;20.06;41.09;100603.77;103820;1288;63379;-83
2023/04/22 01:58:15;;;;;;;;;;;;;;;20.06;40.95;100601.64;103743;1283;62124;-82
2023/04/22 02:00:40;;;;;;;;;;;;;;;20.05;41.09;100597.20;103635;1285;62273;-82
2023/04/22 02:03:06;;;;;;;;;;;;;;;20.05;40.87;100595.24;103794;1283;63371;-84
2023/04/22 02:05:31;;;;;;;;;;;;;;;20.06;41.04;100594.67;103747;1286;62738;-82
2023/04/22 02:07:57;;;;;;;;;;;;;;;20.05;41.06;100590.08;103703;1283;62273;-82
2023/04/22 02:10:22;;;;;;;;;;;;;;;20.05;40.99;100589.02;103842;1288;62251;-82
2023/04/22 02:12:48;;;;;;;;;;;;;;;20.05;40.99;100590.98;103789;1282;62851;-83
2023/04/22 02:15:15;;;;;;;;;;;;;;;20.05;40.95;100589.90;103782;1284;62672;-83
2023/04/22 02:17:41;;;;;;;;;;;;;;;20.05;40.94;100586.90;103824;1282;62219;-83
2023/04/22 02:20:06;;;;;;;;;;;;;;;20.05;40.96;100582.08;103783;1282;62191;-82
2023/04/22 02:22:32;;;;;;;;;;;;;;;20.04;41.01;100583.16;103524;1282;62169;-83
2023/04/22 02:24:57;;;;;;;;;;;;;;;20.04;41.02;100583.89;103735;1282;62199;-83
2023/04/22 02:27:23;;;;;;;;;;;;;;;20.04;41.03;100587.48;103779;1282;63374;-84
2023/04/22 02:29:50;;;;;;;;;;;;;;;20.04;40.84;100592.83;103727;1282;62149;-83
2023/04/22 02:32:16;;;;;;;;;;;;;;;20.04;40.95;100593.38;103720;1283;62151;-82
2023/04/22 02:34:42;;;;;;;;;;;;;;;20.03;40.94;100592.87;103802;1283;62196;-83
2023/04/22 02:37:07;;;;;;;;;;;;;;;20.04;40.93;100593.02;103840;1288;62248;-82
2023/04/22 02:39:33;;;;;;;;;;;;;;;20.04;40.80;100598.59;103797;1285;62191;-83
2023/04/22 02:41:58;;;;;;;;;;;;;;;20.03;40.93;100598.44;103678;1283;62190;-83
2023/04/22 02:44:24;;;;;;;;;;;;;;;20.03;40.95;100598.41;103704;1283;62236;-82
2023/04/22 02:46:50;;;;;;;;;;;;;;;20.03;40.91;100605.77;103780;1283;62198;-83
2023/04/22 02:49:15;;;;;;;;;;;;;;;20.03;40.90;100605.80;103767;1288;62357;-84
2023/04/22 02:51:41;;;;;;;;;;;;;;;20.03;40.92;100608.11;103735;1285;62117;-83
2023/04/22 02:54:06;;;;;;;;;;;;;;;20.03;40.94;100614.00;103813;1288;62716;-82
2023/04/22 02:56:32;;;;;;;;;;;;;;;20.02;40.89;100615.62;103735;1286;63307;-83
2023/04/22 02:58:57;;;;;;;;;;;;;;;20.02;40.91;100613.67;103753;1282;62620;-83
2023/04/22 03:01:23;;;;;;;;;;;;;;;20.02;40.94;100617.77;103766;1283;62208;-83
2023/04/22 03:03:49;;;;;;;;;;;;;;;20.03;41.05;100619.91;103807;1287;62186;-83
2023/04/22 03:06:14;;;;;;;;;;;;;;;20.03;40.92;100621.89;103746;1283;62207;-82
2023/04/22 03:08:40;;;;;;;;;;;;;;;20.02;41.05;100618.69;103734;1283;63376;-83
2023/04/22 03:11:05;;;;;;;;;;;;;;;20.02;40.99;100615.88;103724;1283;62140;-82
2023/04/22 03:13:31;;;;;;;;;;;;;;;20.02;41.00;100619.79;103803;1283;62201;-82
2023/04/22 03:15:57;;;;;;;;;;;;;;;20.02;41.02;100626.19;103791;1283;62193;-84
2023/04/22 03:18:22;;;;;;;;;;;;;;;20.02;40.91;100631.41;103721;1282;62628;-83
2023/04/22 03:20:48;;;;;;;;;;;;;;;20.02;40.95;100633.38;103693;1283;62844;-83
2023/04/22 03:23:13;;;;;;;;;;;;;;;20.02;40.92;100637.13;103731;1282;62111;-83
2023/04/22 03:25:40;;;;;;;;;;;;;;;20.01;40.95;100638.73;103715;1288;62138;-82
2023/04/22 03:28:06;;;;;;;;;;;;;;;20.02;40.83;100642.69;103763;1283;62136;-83
2023/04/22 03:30:32;;;;;;;;;;;;;;;20.01;40.87;100641.83;103819;1283;62102;-83
2023/04/22 03:32:58;;;;;;;;;;;;;;;20.01;40.99;100646.63;103779;1282;62088;-82
2023/04/22 03:35:24;;;;;;;;;;;;;;;20.01;41.02;100647.55;103776;1287;62290;-82
2023/04/22 03:37:49;;;;;;;;;;;;;;;20.01;40.98;100653.44;103761;1283;62366;-83
2023/04/22 03:40:15;;;;;;;;;;;;;;;20.01;40.90;100655.05;103772;1283;63302;-83
2023/04/22 03:42:40;;;;;;;;;;;;;;;20.01;40.96;100659.15;103648;1283;62203;-83
2023/04/22 03:45:06;;;;;;;;;;;;;;;20.01;40.89;100657.55;103624;1283;62239;-83
2023/04/22 03:47:32;;;;;;;;;;;;;;;20.01;40.85;100659.68;103763;1283;63421;-82
2023/04/22 03:49:57;;;;;;;;;;;;;;;20.01;40.79;100663.10;103762;1282;62245;-83
2023/04/22 03:52:23;;;;;;;;;;;;;;;20.01;40.89;100666.48;103696;1285;62312;-83
2023/04/22 03:54:48;;;;;;;;;;;;;;;20.01;40.84;100669.55;103663;1288;63329;-84
2023/04/22 03:57:14;;;;;;;;;;;;;;;20.01;40.76;100669.70;103742;1283;62175;-82
2023/04/22 03:59:39;;;;;;;;;;;;;;;20.01;40.96;100674.00;103791;1283;62164;-83
2023/04/22 04:02:07;;;;;;;;;;;;;;;20.01;40.89;100674.89;103713;1288;62079;-84
2023/04/22 04:04:33;;;;;;;;;;;;;;;20.01;40.77;100670.61;103852;1283;62095;-84
2023/04/22 04:06:59;;;;;;;;;;;;;;;20.01;40.87;100671.64;103772;1283;63274;-82
2023/04/22 04:09:24;;;;;;;;;;;;;;;20.01;40.86;100671.66;103744;1288;62193;-83
2023/04/22 04:11:50;;;;;;;;;;;;;;;20.01;40.84;100672.72;103785;1282;62260;-83
2023/04/22 04:14:15;;;;;;;;;;;;;;;20.01;40.92;100678.98;103853;1282;62627;-83
2023/04/22 04:16:41;;;;;;;;;;;;;;;20.01;40.77;100684.52;103793;1283;63224;-83
2023/04/22 04:19:06;;;;;;;;;;;;;;;20.01;40.98;100685.92;103772;1286;62181;-83
2023/04/22 04:21:32;;;;;;;;;;;;;;;20.01;40.92;100691.83;103683;1282;62289;-83
2023/04/22 04:23:59;;;;;;;;;;;;;;;20.01;40.95;100692.73;103843;1283;61966;-83
2023/04/22 04:26:26;;;;;;;;;;;;;;;20.01;40.83;100690.20;103888;1282;62209;-83
2023/04/22 04:28:52;;;;;;;;;;;;;;;20.01;40.75;100693.26;103777;1282;63371;-82
2023/04/22 04:31:17;;;;;;;;;;;;;;;20.01;40.97;100695.40;103753;1288;62296;-83
2023/04/22 04:33:43;;;;;;;;;;;;;;;20.02;40.80;100698.58;103801;1283;62187;-82
2023/04/22 04:36:09;;;;;;;;;;;;;;;20.01;40.80;100698.60;103811;1288;62371;-83
2023/04/22 04:38:35;;;;;;;;;;;;;;;20.01;40.84;100703.95;103779;1283;62139;-83
2023/04/22 04:41:00;;;;;;;;;;;;;;;20.02;40.90;100707.17;103727;1283;62284;-83
2023/04/22 04:43:29;;;;;;;;;;;;;;;20.02;40.76;100711.61;103730;1288;62139;-83
2023/04/22 04:45:54;;;;;;;;;;;;;;;20.02;40.86;100714.98;103754;1282;62489;-83
2023/04/22 04:48:23;;;;;;;;;;;;;;;20.02;40.86;100723.78;103623;1288;62193;-82
2023/04/22 04:50:52;;;;;;;;;;;;;;;20.02;40.83;100727.36;103791;1286;73621;-83
2023/04/22 04:53:20;;;;;;;;;;;;;;;20.01;40.92;100725.41;103771;1282;75327;-83
2023/04/22 04:55:45;;;;;;;;;;;;;;;20.02;40.92;100729.11;103775;1283;62730;-83
2023/04/22 04:58:11;;;;;;;;;;;;;;;20.02;40.89;100731.09;103632;1283;63349;-83
2023/04/22 05:00:36;;;;;;;;;;;;;;;20.02;40.73;100731.78;103732;1288;62018;-84
2023/04/22 05:03:02;;;;;;;;;;;;;;;20.02;40.82;100729.09;103705;1283;62194;-83
2023/04/22 05:05:28;;;;;;;;;;;;;;;20.02;40.76;100729.29;103797;1283;62255;-82
2023/04/22 05:07:54;;;;;;;;;;;;;;;20.03;40.82;100735.31;103807;1282;62178;-83
2023/04/22 05:10:20;;;;;;;;;;;;;;;20.03;40.81;100729.95;103733;1286;62273;-82
2023/04/22 05:12:46;;;;;;;;;;;;;;;20.03;40.77;100733.69;103805;1282;62089;-83
2023/04/22 05:15:12;;;;;;;;;;;;;;;20.03;40.79;100737.10;103785;1282;62752;-83
2023/04/22 05:17:38;;;;;;;;;;;;;;;20.03;40.82;100741.49;103798;1288;62226;-82
2023/04/22 05:20:04;;;;;;;;;;;;;;;20.03;40.86;100742.74;103781;1282;62354;-83
2023/04/22 05:22:29;;;;;;;;;;;;;;;20.04;40.87;100748.26;103736;1288;62247;-82
2023/04/22 05:24:55;;;;;;;;;;;;;;;20.04;40.89;100745.55;103778;1282;62156;-82
2023/04/22 05:27:20;;;;;;;;;;;;;;;20.05;40.82;100750.52;103673;1282;76219;-82
2023/04/22 05:29:46;;;;;;;;;;;;;;;20.05;40.78;100749.06;103753;1288;62180;-83
2023/04/22 05:32:11;;;;;;;;;;;;;;;20.06;40.80;100753.48;103734;1283;63317;-83
2023/04/22 05:34:38;;;;;;;;;;;;;;;20.06;40.84;100754.38;103751;1282;62890;-83
2023/04/22 05:37:04;;;;;;;;;;;;;;;20.07;40.92;100756.41;103757;1283;62194;-83
2023/04/22 05:39:29;;;;;;;;;;;;;;;20.08;40.94;100755.14;103793;1282;62308;-83
2023/04/22 05:41:55;;;;;;;;;;;;;;;20.08;41.04;100755.67;103812;1282;62203;-83
2023/04/22 05:44:20;;;;;;;;;;;;;;;20.08;40.88;100757.77;103705;1283;63294;-83
2023/04/22 05:46:46;;;;;;;;;;;;;;;20.10;40.86;100761.27;103749;1283;62181;-83
2023/04/22 05:49:11;;;;;;;;;;;;;;;20.10;40.84;100756.19;103705;1288;62210;-83
2023/04/22 05:51:38;;;;;;;;;;;;;;;20.12;40.98;100759.20;103771;1283;62334;-83
2023/04/22 05:54:03;;;;;;;;;;;;;;;20.12;41.02;100762.36;103785;1286;62127;-81
2023/04/22 05:56:29;;;;;;;;;;;;;;;20.13;40.75;100761.42;103786;1283;62246;-83
2023/04/22 05:58:54;;;;;;;;;;;;;;;20.14;40.78;100762.05;103642;1282;62644;-83
2023/04/22 06:01:20;;;;;;;;;;;;;;;20.15;40.98;100764.88;103835;1282;62656;-82
2023/04/22 06:03:46;;;;;;;;;;;;;;;20.15;40.93;100765.94;103808;1282;62244;-83
2023/04/22 06:06:11;;;;;;;;;;;;;;;20.16;40.91;100768.19;103754;1286;62094;-83
2023/04/22 06:08:37;;;;;;;;;;;;;;;20.16;40.86;100773.88;103760;1282;62212;-83
2023/04/22 06:11:02;;;;;;;;;;;;;;;20.17;40.86;100777.37;103794;1285;62274;-82
2023/04/22 06:13:28;;;;;;;;;;;;;;;20.18;40.80;100780.16;103750;1286;62134;-84
2023/04/22 06:15:53;;;;;;;;;;;;;;;20.18;40.83;100781.27;103613;1285;62177;-83
2023/04/22 06:18:19;;;;;;;;;;;;;;;20.19;40.86;100781.55;103731;1282;63446;-83
2023/04/22 06:20:47;;;;;;;;;;;;;;;20.20;41.05;100787.55;103762;1288;62529;-83
2023/04/22 06:23:12;;;;;;;;;;;;;;;20.20;40.91;100791.11;103765;1282;72277;-83
2023/04/22 06:25:38;;;;;;;;;;;;;;;20.21;41.00;100791.41;103769;1283;62203;-82
2023/04/22 06:28:03;;;;;;;;;;;;;;;20.22;40.99;100794.20;103922;1288;62188;-82
2023/04/22 06:30:29;;;;;;;;;;;;;;;20.22;40.98;100796.48;103753;1282;62300;-83
2023/04/22 06:32:55;;;;;;;;;;;;;;;20.23;40.93;100801.80;103819;1285;62657;-82
2023/04/22 06:35:20;;;;;;;;;;;;;;;20.24;40.95;100801.58;103781;1283;72500;-82
2023/04/22 06:37:46;;;;;;;;;;;;;;;20.24;40.93;100803.86;103802;1283;63216;-82
2023/04/22 06:40:13;;;;;;;;;;;;;;;20.25;41.11;100806.70;103749;1288;62134;-83
2023/04/22 06:42:38;;;;;;;;;;;;;;;20.25;41.02;100810.77;103750;1283;62175;-82
2023/04/22 06:45:04;;;;;;;;;;;;;;;20.27;40.95;100809.45;103912;1282;62358;-83
2023/04/22 06:47:29;;;;;;;;;;;;;;;20.27;41.11;100813.36;103752;1282;62178;-83
2023/04/22 06:49:55;;;;;;;;;;;;;;;20.27;40.94;100814.79;103856;1285;62187;-83
2023/04/22 06:52:21;;;;;;;;;;;;;;;20.28;40.89;100818.85;103783;1283;62088;-83
2023/04/22 06:54:49;;;;;;;;;;;;;;;20.29;41.08;100820.59;103818;1283;62139;-83
2023/04/22 06:57:15;;;;;;;;;;;;;;;20.29;40.98;100820.38;103776;1288;73258;-83
2023/04/22 06:59:40;;;;;;;;;;;;;;;20.29;40.96;100822.52;103796;1283;62283;-82
2023/04/22 07:02:06;;;;;;;;;;;;;;;20.30;40.87;100821.95;103852;1282;62182;-82
2023/04/22 07:04:31;;;;;;;;;;;;;;;20.30;40.90;100823.52;96355;1288;10260241;-82
2023/04/22 07:06:57;;;;;;;;;;;;;;;20.31;40.92;100827.24;103796;1282;62570;-83
2023/04/22 07:09:22;;;;;;;;;;;;;;;20.31;40.93;100827.05;103864;1283;62219;-82
2023/04/22 07:11:48;;;;;;;;;;;;;;;20.31;40.91;100827.96;103854;1282;62184;-83
2023/04/22 07:14:15;;;;;;;;;;;;;;;20.32;40.91;100828.25;103777;1282;62861;-83
2023/04/22 07:16:41;;;;;;;;;;;;;;;20.32;40.89;100833.23;103765;1283;63486;-82
2023/04/22 07:19:06;;;;;;;;;;;;;;;20.32;40.88;100829.63;103803;1282;63504;-83
2023/04/22 07:21:32;;;;;;;;;;;;;;;20.33;40.89;100829.41;103774;1288;63259;-82
2023/04/22 07:23:57;;;;;;;;;;;;;;;20.33;40.88;100831.73;103804;1282;62149;-83
2023/04/22 07:26:23;;;;;;;;;;;;;;;20.33;40.74;100831.00;103710;1282;62196;-83
2023/04/22 07:28:49;;;;;;;;;;;;;;;20.33;40.93;100837.98;103834;1286;62126;-82
2023/04/22 07:31:15;;;;;;;;;;;;;;;20.33;40.86;100835.45;103725;1285;62204;-83
2023/04/22 07:33:40;;;;;;;;;;;;;;;20.34;40.89;100835.77;103803;1283;62276;-82
2023/04/22 07:36:06;;;;;;;;;;;;;;;20.34;40.77;100839.53;103754;1283;62108;-83
2023/04/22 07:38:31;;;;;;;;;;;;;;;20.34;40.87;100840.04;103786;1283;62155;-82
2023/04/22 07:40:57;;;;;;;;;;;;;;;20.34;40.85;100839.88;103736;1284;62191;-84
2023/04/22 07:43:22;;;;;;;;;;;;;;;20.35;40.86;100842.17;103803;1283;62255;-83
2023/04/22 07:45:48;;;;;;;;;;;;;;;20.35;40.85;100847.50;103760;1283;62164;-83
2023/04/22 07:48:13;;;;;;;;;;;;;;;20.35;40.87;100849.48;103759;1282;62178;-83
2023/04/22 07:50:39;;;;;;;;;;;;;;;20.35;40.80;100849.30;103776;1287;62287;-83
2023/04/22 07:53:04;;;;;;;;;;;;;;;20.35;40.78;100852.70;103800;1286;62679;-82
2023/04/22 07:55:30;;;;;;;;;;;;;;;20.35;40.71;100846.83;103766;1283;62216;-83
2023/04/22 07:57:56;;;;;;;;;;;;;;;20.35;40.66;100854.48;103807;1283;62199;-83
2023/04/22 08:00:21;;;;;;;;;;;;;;;20.35;40.79;100853.23;103858;1282;63350;-82
2023/04/22 08:02:47;;;;;;;;;;;;;;;20.35;40.80;100852.85;103768;1288;62171;-82
2023/04/22 08:05:12;;;;;;;;;;;;;;;20.35;40.84;100858.02;103834;1283;62220;-82
2023/04/22 08:07:38;;;;;;;;;;;;;;;20.36;40.67;100855.33;103821;1282;62078;-83
2023/04/22 08:10:03;;;;;;;;;;;;;;;20.35;40.73;100852.11;103797;1283;62820;-83
2023/04/22 08:12:29;;;;;;;;;;;;;;;20.35;40.73;100856.96;103782;1283;62188;-83
2023/04/22 08:14:56;;;;;;;;;;;;;;;20.36;40.78;100854.98;103818;1288;62210;-84
2023/04/22 08:17:22;;;;;;;;;;;;;;;20.36;40.71;100852.10;103759;1283;62118;-82
2023/04/22 08:19:47;;;;;;;;;;;;;;;20.36;40.85;100859.79;103849;1283;62299;-82
2023/04/22 08:22:13;;;;;;;;;;;;;;;20.35;40.64;100857.14;103789;1283;62251;-83
2023/04/22 08:24:39;;;;;;;;;;;;;;;20.35;40.79;100857.30;103723;1283;72493;-82
2023/04/22 08:27:04;;;;;;;;;;;;;;;20.36;40.55;100853.17;103808;1283;63226;-83
2023/04/22 08:29:31;;;;;;;;;;;;;;;20.35;40.62;100849.45;103844;1283;62132;-82
2023/04/22 08:31:56;;;;;;;;;;;;;;;20.35;40.55;100851.41;103815;1282;62130;-83
2023/04/22 08:34:23;;;;;;;;;;;;;;;20.35;40.46;100848.77;103759;1282;62749;-83
2023/04/22 08:36:49;;;;;;;;;;;;;;;20.35;40.60;100853.23;103781;1283;62248;-82
2023/04/22 08:39:16;;;;;;;;;;;;;;;20.35;40.44;100850.73;104142;1283;62177;-81
2023/04/22 08:41:42;;;;;;;;;;;;;;;20.35;40.48;100851.99;104211;1283;62189;-81
2023/04/22 08:44:07;;;;;;;;;;;;;;;20.35;40.55;100847.84;104040;1288;62132;-82
2023/04/22 08:46:33;;;;;;;;;;;;;;;20.35;40.32;100846.42;104001;1286;62214;-82
2023/04/22 08:49:02;;;;;;;;;;;;;;;20.35;40.47;100845.88;104040;1282;62139;-82
2023/04/22 08:51:28;;;;;;;;;;;;;;;20.35;40.43;100846.04;103914;1283;62204;-82
2023/04/22 08:53:53;;;;;;;;;;;;;;;20.36;40.48;100849.05;103853;1288;62069;-83
2023/04/22 08:56:19;;;;;;;;;;;;;;;20.36;40.44;100847.27;103703;1282;62758;-84
2023/04/22 08:58:45;;;;;;;;;;;;;;;20.36;40.25;100844.59;103834;1282;62197;-82
2023/04/22 09:01:10;;;;;;;;;;;;;;;20.36;40.36;100844.23;104067;1283;63470;-83
2023/04/22 09:03:37;;;;;;;;;;;;;;;20.36;40.27;100843.16;103953;1283;62199;-82
2023/04/22 09:06:03;;;;;;;;;;;;;;;20.35;40.40;100839.97;103818;1283;62647;-82
2023/04/22 09:08:29;;;;;;;;;;;;;;;20.35;40.35;100847.67;103922;1282;62555;-83
2023/04/22 09:10:55;;;;;;;;;;;;;;;20.35;40.18;100841.39;103831;1283;62123;-82
2023/04/22 09:13:21;;;;;;;;;;;;;;;20.35;40.28;100841.38;103895;1282;62149;-83
2023/04/22 09:15:47;;;;;;;;;;;;;;;20.35;40.34;100840.38;103830;1282;62951;-83
2023/04/22 09:18:15;;;;;;;;;;;;;;;20.35;40.14;100846.44;103860;1286;62204;-83
2023/04/22 09:20:41;;;;;;;;;;;;;;;20.35;40.35;100847.89;103784;1283;62194;-83
2023/04/22 09:23:06;;;;;;;;;;;;;;;20.34;40.21;100848.63;103732;1283;62198;-82
2023/04/22 09:25:33;;;;;;;;;;;;;;;20.34;40.24;100846.67;103753;1282;62124;-83
2023/04/22 09:27:59;;;;;;;;;;;;;;;20.34;40.23;100840.06;103763;1288;62209;-83
2023/04/22 09:30:29;;;;;;;;;;;;;;;20.34;40.15;100839.20;103721;1283;62194;-83
2023/04/22 09:32:55;;;;;;;;;;;;;;;20.34;40.17;100841.52;103792;1283;62057;-84
2023/04/22 09:35:28;;;;;;;;;;;;;;;20.33;40.12;100836.88;103832;1283;62182;-83
2023/04/22 09:37:54;;;;;;;;;;;;;;;20.33;40.21;100838.67;103835;1282;72599;-83
2023/04/22 09:40:21;;;;;;;;;;;;;;;20.33;40.15;100839.58;103746;1287;75055;-83
2023/04/22 09:42:47;;;;;;;;;;;;;;;20.33;40.21;100841.20;103719;1283;62253;-83
2023/04/22 09:45:12;;;;;;;;;;;;;;;20.33;40.07;100844.42;103768;1282;62973;-83
2023/04/22 09:47:38;;;;;;;;;;;;;;;20.33;40.02;100844.45;103738;1282;62217;-82
2023/04/22 09:50:03;;;;;;;;;;;;;;;20.32;40.05;100840.36;103857;1285;62190;-83
2023/04/22 09:52:29;;;;;;;;;;;;;;;20.32;40.10;100838.22;103837;1282;63354;-82
2023/04/22 09:54:54;;;;;;;;;;;;;;;20.33;39.87;100841.60;103781;1283;62764;-84
2023/04/22 09:57:20;;;;;;;;;;;;;;;20.32;39.94;100835.55;103781;1282;62372;-82
2023/04/22 09:59:46;;;;;;;;;;;;;;;20.32;39.95;100837.52;103782;1288;62611;-83
2023/04/22 10:02:13;;;;;;;;;;;;;;;20.31;40.04;100837.73;103795;1283;62283;-83
2023/04/22 10:04:38;;;;;;;;;;;;;;;20.31;39.99;100835.44;103784;1288;62248;-81
2023/04/22 10:07:05;;;;;;;;;;;;;;;20.32;39.96;100828.43;103805;1283;63310;-83
2023/04/22 10:09:30;;;;;;;;;;;;;;;20.31;39.90;100829.71;103754;1282;63326;-83
2023/04/22 10:11:57;;;;;;;;;;;;;;;20.31;40.01;100820.98;103747;1282;62197;-83
2023/04/22 10:14:24;;;;;;;;;;;;;;;20.31;39.95;100816.69;103857;1283;75210;-83
2023/04/22 10:16:50;;;;;;;;;;;;;;;20.30;39.96;100820.83;103754;1288;62258;-84
2023/04/22 10:19:19;;;;;;;;;;;;;;;20.30;39.94;100824.61;103819;1283;62191;-83
2023/04/22 10:21:45;;;;;;;;;;;;;;;20.30;39.77;100817.63;103738;1285;73462;-83
2023/04/22 10:24:17;;;;;;;;;;;;;;;20.30;39.84;100812.48;103793;1282;62826;-82
2023/04/22 10:26:50;;;;;;;;;;;;;;;20.30;39.95;100814.05;103702;1282;62111;-83
2023/04/22 10:29:16;;;;;;;;;;;;;;;20.30;39.83;100812.84;103820;1283;63226;-83
2023/04/22 10:32:06;;;;;;;;;;;;;;;20.30;39.78;100812.13;103782;1288;73254;-82
2023/04/22 10:34:32;;;;;;;;;;;;;;;20.30;39.77;100817.66;103741;1288;75300;-83
2023/04/22 10:37:04;;;;;;;;;;;;;;;20.30;39.78;100815.32;103883;1282;62178;-83
2023/04/22 10:39:30;;;;;;;;;;;;;;;20.30;39.80;100809.08;103756;1283;62682;-83
2023/04/22 10:41:57;;;;;;;;;;;;;;;20.30;39.85;100807.64;103732;1288;63264;-83
2023/04/22 10:44:22;;;;;;;;;;;;;;;20.30;39.74;100809.98;103799;1282;62098;-82
2023/04/22 10:46:55;;;;;;;;;;;;;;;20.30;39.84;100806.23;103750;1288;62194;-83
2023/04/22 10:49:24;;;;;;;;;;;;;;;20.30;39.89;100805.87;103844;1283;62078;-82
2023/04/22 10:51:50;;;;;;;;;;;;;;;20.30;39.83;100803.02;103753;1288;72289;-82
2023/04/22 10:54:25;;;;;;;;;;;;;;;20.29;39.91;100796.23;103732;1285;62107;-83
2023/04/22 10:57:09;;;;;;;;;;;;;;;20.30;39.72;100799.79;103833;1282;62146;-83
2023/04/22 10:59:42;;;;;;;;;;;;;;;20.29;39.71;100796.61;103785;1283;62091;-82
2023/04/22 11:02:07;;;;;;;;;;;;;;;20.29;39.69;100796.27;103820;1283;73468;-83
2023/04/22 11:04:33;;;;;;;;;;;;;;;20.29;39.67;100797.52;103796;1282;62190;-81
2023/04/22 11:07:11;;;;;;;;;;;;;;;20.28;39.75;100795.59;103800;1282;62191;-83
2023/04/22 11:09:40;;;;;;;;;;;;;;;20.29;39.83;100801.29;103802;1283;62782;-82
2023/04/22 11:12:25;;;;;;;;;;;;;;;20.29;39.64;100801.27;103910;1284;73326;-83
2023/04/22 11:14:50;;;;;;;;;;;;;;;20.29;39.58;100811.48;103797;1283;74628;-83
2023/04/22 11:17:16;;;;;;;;;;;;;;;20.28;39.78;100813.11;103813;1283;62909;-83
2023/04/22 11:19:41;;;;;;;;;;;;;;;20.29;39.59;100808.45;103827;1288;62158;-83
2023/04/22 11:22:07;;;;;;;;;;;;;;;20.29;39.71;100810.05;103805;1287;62194;-83
2023/04/22 11:24:32;;;;;;;;;;;;;;;20.29;39.61;100821.67;103864;1288;63258;-83
2023/04/22 11:26:58;;;;;;;;;;;;;;;20.28;39.63;100814.55;103811;1288;62158;-83
2023/04/22 11:29:24;;;;;;;;;;;;;;;20.29;39.63;100813.62;103836;1288;62260;-83
2023/04/22 11:31:49;;;;;;;;;;;;;;;20.29;39.63;100807.91;103873;1287;62185;-83
2023/04/22 11:34:15;;;;;;;;;;;;;;;20.28;39.86;100812.75;103801;1283;62183;-83
2023/04/22 11:36:46;;;;;;;;;;;;;;;20.29;39.68;100806.49;103913;1282;63394;-83
2023/04/22 11:39:15;;;;;;;;;;;;;;;20.29;39.65;100804.31;103754;1283;75323;-83
2023/04/22 11:41:41;;;;;;;;;;;;;;;20.28;39.64;100800.25;104070;1283;62070;-82
2023/04/22 11:44:06;;;;;;;;;;;;;;;20.29;39.65;100802.55;104229;1283;62669;-82
2023/04/22 11:46:38;;;;;;;;;;;;;;;20.29;39.72;100802.17;103913;1288;62631;-81
2023/04/22 11:49:10;;;;;;;;;;;;;;;20.30;39.75;100807.33;103992;1282;76198;-83
2023/04/22 11:51:36;;;;;;;;;;;;;;;20.30;39.75;100809.92;104460;1282;62070;-80
2023/04/22 11:54:02;;;;;;;;;;;;;;;20.30;39.60;100811.39;104384;1283;63278;-80
2023/04/22 11:56:27;;;;;;;;;;;;;;;20.31;39.77;100806.70;104262;1282;62072;-80
2023/04/22 11:58:53;;;;;;;;;;;;;;;20.31;39.85;100807.57;104136;1282;62230;-81
2023/04/22 12:01:18;;;;;;;;;;;;;;;20.31;39.71;100805.59;104256;1285;62271;-81
2023/04/22 12:03:50;;;;;;;;;;;;;;;20.32;39.70;100804.30;103941;1288;62200;-82
2023/04/22 12:06:15;;;;;;;;;;;;;;;20.32;39.68;100799.09;103684;1283;62181;-83
2023/04/22 12:08:43;;;;;;;;;;;;;;;20.32;39.76;100799.24;103898;1283;62290;-82
2023/04/22 12:11:09;;;;;;;;;;;;;;;20.32;39.72;100803.71;103893;1288;76302;-82
2023/04/22 12:13:37;;;;;;;;;;;;;;;20.33;39.83;100799.75;103940;1288;62145;-82
2023/04/22 12:16:06;;;;;;;;;;;;;;;20.33;39.63;100796.34;104296;1286;62047;-81
2023/04/22 12:18:34;;;;;;;;;;;;;;;20.34;39.70;100793.80;104032;1286;72428;-82
2023/04/22 12:21:03;;;;;;;;;;;;;;;20.33;39.51;100792.91;103829;1283;75265;-82